Briefing drone pour Lamonzie-saint-martin

Rechercher une autre localisation

Conditions de vol :


Nous sommes le : Vendredi 26 février 2021
Il est 21:05 UTC (22:05 LT)

Lever de soleil : 06:14 UTC (07:14 LT)
Coucher de soleil : 18:08 UTC (19:08 LT)

Météo

L'essentiel des conditions de vol

VIGILANCE MÉTÉO FRANCE - Dordogne (24)
Pas de vigilances particulieres
METAR de LFBE
LFBE 262100Z AUTO 03004KT 350V050 CAVOK 09/06 Q1032 NOSIG

Date d'émission: 26/02/2021
Heure d'émission: 21:00 UTC
Vent: 030° (variable du 350° au 050°) pour 4 KT (7 km/h)
Visibilité horizontale: > 10 km
Plafond : Plafond et visibilité OK (CAVOK)
Température: 9 °C
Point de rosée: 6 °C
Humidité: 81%
Pression (QNH): 1032 hPa
Conditions: Pas de changement dans les 2 heures (NOSIG)
TAF de LFBE
AMD LFBE 262100Z 2621/2718 CNL

Conditions prévues :

Heure d'émission : Bulletin éffectué le 26 à 21:00 UTC
Prévision : Valide du 26 a 21:00 UTC au 27 a 18:00 UTC
Nuages : à 0ft (0 m)
WEBCAM POUR LAMONZIE-SAINT-MARTIN

Réglementation

Voler en sécurité

CARTES AERONAUTIQUE 1/500.000
CARTES VAC (LFBE)
SUP AIP




Chargement des AIP...
NOTAM (LAMONZIE-SAINT-MARTIN + Terrain à proximité / FIR )




Chargement des NOTAMS...
CONTACT PREFECTURE 24


Avertissement : Les données mises à disposition sont indicatives. Oxygène Drone ne pourra être tenu responsable de dégâts causés aux biens et aux personnes.